Time;durP1;ratioP1;P1;durP2;ratioP2;P2;SDS_P1;SDS_P2;PMS_P1;PMS_P2;Temp;Humidity;BMP_temperature;BMP_pressure;BME280_temperature;BME280_humidity;BME280_pressure;Samples;Min_cycle;Max_cycle;Signal;HPM_P1;HPM_P2
2022/04/15 03:00:37;;;;;;;2.10;1.90;;;20.80;47.90;;;;;;5830327;23;46306;-63
2022/04/15 03:03:03;;;;;;;1.83;1.73;;;20.70;47.90;;;;;;4924110;28;45543;-62
2022/04/15 03:05:30;;;;;;;2.13;1.92;;;20.80;47.90;;;;;;4956708;28;45246;-64
2022/04/15 03:07:56;;;;;;;1.83;1.73;;;20.80;47.90;;;;;;4959068;28;45276;-60
2022/04/15 03:10:21;;;;;;;2.05;1.92;;;20.80;47.90;;;;;;4964625;28;45233;-61
2022/04/15 03:12:47;;;;;;;2.17;1.98;;;20.70;47.90;;;;;;4977996;28;45350;-57
2022/04/15 03:15:13;;;;;;;2.63;2.08;;;20.70;47.90;;;;;;4977756;28;46153;-60
2022/04/15 03:17:38;;;;;;;2.20;2.00;;;20.70;47.90;;;;;;4977960;28;45172;-61
2022/04/15 03:20:05;;;;;;;1.73;1.63;;;20.80;48.00;;;;;;4984397;28;45231;-60
2022/04/15 03:22:34;;;;;;;2.60;1.63;;;20.70;48.00;;;;;;4959332;28;45527;-60
2022/04/15 03:25:00;;;;;;;1.73;1.63;;;20.70;48.00;;;;;;4960430;28;46145;-60
2022/04/15 03:27:25;;;;;;;1.73;1.63;;;20.70;48.00;;;;;;4987263;28;45469;-59
2022/04/15 03:29:51;;;;;;;2.30;2.10;;;20.70;48.00;;;;;;4977851;28;45087;-61
2022/04/15 03:32:17;;;;;;;2.00;1.80;;;20.70;48.00;;;;;;4983122;28;44803;-61
2022/04/15 03:34:43;;;;;;;1.98;1.77;;;20.70;48.00;;;;;;4977579;28;45253;-61
2022/04/15 03:37:08;;;;;;;1.50;1.40;;;20.70;48.00;;;;;;4983616;28;44710;-57
2022/04/15 03:39:35;;;;;;;1.80;1.67;;;20.70;48.00;;;;;;4983817;28;45848;-58
2022/04/15 03:42:01;;;;;;;1.85;1.75;;;20.70;48.00;;;;;;4980578;28;44869;-61
2022/04/15 03:44:27;;;;;;;1.90;1.80;;;20.70;48.00;;;;;;4982447;28;46270;-56
2022/04/15 03:46:53;;;;;;;1.73;1.58;;;20.70;48.00;;;;;;4981997;28;45234;-58
2022/04/15 03:49:18;;;;;;;2.78;2.00;;;20.70;48.10;;;;;;4975984;28;44602;-60
2022/04/15 03:51:44;;;;;;;2.42;1.75;;;20.70;48.00;;;;;;4988232;28;45257;-58
2022/04/15 03:54:09;;;;;;;1.98;1.85;;;20.70;48.00;;;;;;4984483;28;46258;-56
2022/04/15 03:56:35;;;;;;;2.13;1.70;;;20.70;48.00;;;;;;4989151;28;45245;-59
2022/04/15 03:59:01;;;;;;;1.77;1.67;;;20.70;48.00;;;;;;4981372;28;44998;-59
2022/04/15 04:01:26;;;;;;;1.50;1.40;;;20.70;48.10;;;;;;4985786;28;46165;-60
2022/04/15 04:03:52;;;;;;;2.35;1.95;;;20.70;48.10;;;;;;4984883;28;46832;-58
2022/04/15 04:06:18;;;;;;;2.00;1.77;;;20.70;48.20;;;;;;4987215;28;45262;-59
2022/04/15 04:08:49;;;;;;;1.98;1.70;;;20.60;48.00;;;;;;4979198;28;45266;-60
2022/04/15 04:11:16;;;;;;;2.13;1.92;;;20.60;48.00;;;;;;4980830;28;44658;-59
2022/04/15 04:13:41;;;;;;;2.20;2.00;;;20.60;48.00;;;;;;4979445;28;45959;-61
2022/04/15 04:16:07;;;;;;;2.53;1.88;;;20.60;48.10;;;;;;4984937;28;44757;-60
2022/04/15 04:18:33;;;;;;;1.98;1.80;;;20.60;48.00;;;;;;4986048;28;45384;-57
2022/04/15 04:20:58;;;;;;;2.13;1.92;;;20.60;48.00;;;;;;4979838;28;45156;-56
2022/04/15 04:23:24;;;;;;;2.00;1.85;;;20.60;48.00;;;;;;4982860;28;46545;-55
2022/04/15 04:25:49;;;;;;;1.70;1.60;;;20.60;48.00;;;;;;4984540;28;45232;-57
2022/04/15 04:28:15;;;;;;;2.22;2.03;;;20.60;48.10;;;;;;4976193;28;45399;-58
2022/04/15 04:30:40;;;;;;;2.42;2.10;;;20.60;48.00;;;;;;4979494;28;45322;-60
2022/04/15 04:33:06;;;;;;;1.98;1.77;;;20.60;48.10;;;;;;4977450;28;46141;-57
2022/04/15 04:35:32;;;;;;;1.85;1.75;;;20.60;48.10;;;;;;4984441;28;45485;-60
2022/04/15 04:37:57;;;;;;;1.75;1.65;;;20.60;48.10;;;;;;4990269;28;45441;-59
2022/04/15 04:40:23;;;;;;;1.92;1.83;;;20.60;48.10;;;;;;4984849;28;44808;-60
2022/04/15 04:42:49;;;;;;;2.00;1.85;;;20.60;48.10;;;;;;4979289;28;45998;-58
2022/04/15 04:45:15;;;;;;;1.98;1.77;;;20.60;48.10;;;;;;4976587;28;45345;-60
2022/04/15 04:47:41;;;;;;;2.50;1.77;;;20.60;48.00;;;;;;4979944;28;45299;-57
2022/04/15 04:50:08;;;;;;;1.95;1.60;;;20.60;48.10;;;;;;4963114;28;45300;-58
2022/04/15 04:52:35;;;;;;;2.15;1.95;;;20.60;48.10;;;;;;4982357;28;45982;-60
2022/04/15 04:55:01;;;;;;;1.92;1.70;;;20.60;48.10;;;;;;4962689;28;44666;-57
2022/04/15 04:57:26;;;;;;;1.95;1.60;;;20.60;48.10;;;;;;4970350;28;45257;-61
2022/04/15 04:59:52;;;;;;;1.65;1.55;;;20.60;48.10;;;;;;4978651;28;45447;-60
2022/04/15 05:02:17;;;;;;;1.52;1.42;;;20.60;48.10;;;;;;4982787;28;45945;-58
2022/04/15 05:04:43;;;;;;;1.70;1.60;;;20.60;48.10;;;;;;4984603;28;44989;-59
2022/04/15 05:07:08;;;;;;;1.70;1.60;;;20.60;48.10;;;;;;4968513;28;45005;-58
2022/04/15 05:09:34;;;;;;;2.15;1.95;;;20.60;48.20;;;;;;4972571;28;45839;-59
2022/04/15 05:12:00;;;;;;;2.22;2.03;;;20.60;48.10;;;;;;4970609;28;47078;-59
2022/04/15 05:14:25;;;;;;;2.17;1.60;;;20.50;48.10;;;;;;4954198;28;45215;-57
2022/04/15 05:16:51;;;;;;;1.70;1.60;;;20.60;48.20;;;;;;4975689;28;45261;-62
2022/04/15 05:19:16;;;;;;;1.83;1.73;;;20.50;48.10;;;;;;4973599;28;45828;-58
2022/04/15 05:21:42;;;;;;;1.77;1.63;;;20.50;48.10;;;;;;4974043;28;45316;-57
2022/04/15 05:24:08;;;;;;;2.00;1.90;;;20.50;48.10;;;;;;4973007;28;45249;-59
2022/04/15 05:26:34;;;;;;;1.60;1.50;;;20.50;48.10;;;;;;4952614;28;45409;-61
2022/04/15 05:29:00;;;;;;;1.70;1.58;;;20.50;48.20;;;;;;4975603;28;45086;-61
2022/04/15 05:31:26;;;;;;;1.63;1.52;;;20.50;48.20;;;;;;4976793;28;45394;-61
2022/04/15 05:33:52;;;;;;;1.80;1.65;;;20.50;48.20;;;;;;4975561;28;45476;-61
2022/04/15 05:36:17;;;;;;;1.75;1.65;;;20.50;48.20;;;;;;4973331;28;45345;-61
2022/04/15 05:38:43;;;;;;;1.90;1.80;;;20.50;48.20;;;;;;4974713;28;45161;-61
2022/04/15 05:41:08;;;;;;;1.60;1.50;;;20.50;48.20;;;;;;4973836;28;46235;-61
2022/04/15 05:43:34;;;;;;;1.50;1.40;;;20.50;48.20;;;;;;4955323;28;45732;-61
2022/04/15 05:45:59;;;;;;;1.92;1.65;;;20.50;48.20;;;;;;4972632;28;44774;-58
2022/04/15 05:48:25;;;;;;;1.70;1.52;;;20.50;48.20;;;;;;4969486;28;45534;-61
2022/04/15 05:50:51;;;;;;;1.83;1.55;;;20.50;48.20;;;;;;4968645;28;47045;-61
2022/04/15 05:53:17;;;;;;;1.63;1.52;;;20.50;48.20;;;;;;4954292;28;45493;-61
2022/04/15 05:55:42;;;;;;;1.85;1.75;;;20.50;48.10;;;;;;4971769;28;44769;-59
2022/04/15 05:58:10;;;;;;;2.53;1.60;;;20.50;48.10;;;;;;4960959;28;44764;-60
2022/04/15 06:00:36;;;;;;;1.50;1.40;;;20.50;48.10;;;;;;4972038;28;45495;-61
2022/04/15 06:03:02;;;;;;;2.08;1.90;;;20.50;48.10;;;;;;4941058;28;45274;-61
2022/04/15 06:05:27;;;;;;;1.73;1.63;;;20.60;48.10;;;;;;4972213;28;45520;-58
2022/04/15 06:07:53;;;;;;;1.88;1.50;;;20.60;48.00;;;;;;4969830;28;45195;-60
2022/04/15 06:10:19;;;;;;;1.55;1.45;;;20.60;47.90;;;;;;4972939;28;47057;-56
2022/04/15 06:15:31;;;;;;;1.80;1.70;;;20.60;47.90;;;;;;4971580;28;45659;-59
2022/04/15 06:17:57;;;;;;;2.35;2.15;;;20.60;47.90;;;;;;4971743;28;45516;-60
2022/04/15 06:20:22;;;;;;;2.20;2.00;;;20.60;47.90;;;;;;4972684;28;46157;-59
2022/04/15 06:22:48;;;;;;;1.90;1.70;;;20.60;47.90;;;;;;4938154;28;45721;-59
2022/04/15 06:25:13;;;;;;;1.85;1.75;;;20.60;48.00;;;;;;4953625;28;45215;-60
2022/04/15 06:27:39;;;;;;;1.75;1.40;;;20.60;47.90;;;;;;4969746;28;45357;-61
2022/04/15 06:30:07;;;;;;;1.75;1.65;;;20.60;48.00;;;;;;4976313;28;46015;-60
2022/04/15 06:32:36;;;;;;;1.92;1.80;;;20.60;47.90;;;;;;4981014;28;45197;-60
2022/04/15 06:35:02;;;;;;;2.13;1.95;;;20.70;47.90;;;;;;4958070;28;45294;-57
2022/04/15 06:37:28;;;;;;;3.97;1.80;;;20.70;47.90;;;;;;4982510;28;45030;-60
2022/04/15 06:39:54;;;;;;;2.20;2.00;;;20.80;47.70;;;;;;4983794;28;47276;-59
2022/04/15 06:42:27;;;;;;;1.75;1.65;;;20.80;47.70;;;;;;4969436;28;45311;-55
2022/04/15 06:44:53;;;;;;;1.92;1.70;;;20.80;47.80;;;;;;4984358;28;45250;-58
2022/04/15 06:47:18;;;;;;;2.22;2.03;;;20.70;47.90;;;;;;4983283;28;45229;-60
2022/04/15 06:49:45;;;;;;;2.60;2.13;;;20.70;47.90;;;;;;4987610;28;45571;-61
2022/04/15 06:52:11;;;;;;;2.35;2.15;;;20.80;47.80;;;;;;4977701;28;45250;-59
2022/04/15 06:54:36;;;;;;;2.65;2.25;;;20.70;47.90;;;;;;4976778;28;44746;-57
2022/04/15 06:57:02;;;;;;;2.20;1.75;;;20.80;47.80;;;;;;4980886;28;45379;-61
2022/04/15 06:59:28;;;;;;;2.15;2.03;;;20.80;47.80;;;;;;4973437;28;45357;-54
2022/04/15 07:01:59;;;;;;;2.35;1.90;;;20.80;47.80;;;;;;4985680;28;45184;-58
2022/04/15 07:04:24;;;;;;;1.83;1.73;;;20.80;47.80;;;;;;4963010;28;45142;-59
2022/04/15 07:06:50;;;;;;;1.70;1.60;;;20.80;47.80;;;;;;4978524;28;45322;-59
2022/04/15 07:09:16;;;;;;;3.15;1.60;;;20.90;47.80;;;;;;4978187;28;46058;-61
2022/04/15 07:11:41;;;;;;;1.88;1.60;;;20.90;47.90;;;;;;4960353;28;45143;-62
2022/04/15 07:14:07;;;;;;;2.08;1.55;;;20.90;47.80;;;;;;4978045;28;45220;-56
2022/04/15 07:16:34;;;;;;;2.05;1.80;;;20.90;47.80;;;;;;4981732;28;44775;-57
2022/04/15 07:19:04;;;;;;;2.17;1.60;;;20.90;47.70;;;;;;4965117;28;46614;-60
2022/04/15 07:21:33;;;;;;;2.35;1.90;;;20.90;47.80;;;;;;4973540;28;45311;-60
2022/04/15 07:23:59;;;;;;;3.03;1.67;;;20.90;47.80;;;;;;4957695;28;44855;-63
2022/04/15 07:26:24;;;;;;;5.20;1.95;;;21.00;47.70;;;;;;4978578;28;44674;-60
2022/04/15 07:28:50;;;;;;;2.20;1.70;;;20.90;47.70;;;;;;4962906;28;45268;-59
2022/04/15 07:31:15;;;;;;;3.67;1.75;;;21.00;47.70;;;;;;4979399;28;44839;-58
2022/04/15 07:33:41;;;;;;;2.15;1.67;;;21.00;47.70;;;;;;4987677;28;45268;-60
2022/04/15 07:36:31;;;;;;;5.80;1.80;;;21.00;47.70;;;;;;4976183;28;44850;-60
2022/04/15 07:38:52;;;;;;;3.08;1.30;;;21.00;47.60;;;;;;4980509;28;46249;-60
2022/04/15 07:41:18;;;;;;;3.97;1.80;;;21.00;47.70;;;;;;4982769;28;45214;-59
2022/04/15 07:43:45;;;;;;;2.65;1.67;;;21.00;47.70;;;;;;4981150;28;45167;-58
2022/04/15 07:46:10;;;;;;;5.30;1.63;;;21.00;47.60;;;;;;4978364;28;45350;-58
2022/04/15 07:48:36;;;;;;;4.35;1.92;;;21.00;47.60;;;;;;4981151;28;46007;-62
2022/04/15 07:51:03;;;;;;;3.70;1.65;;;21.00;47.60;;;;;;4970535;28;44816;-58
2022/04/15 07:53:28;;;;;;;1.55;1.35;;;21.00;47.60;;;;;;4977987;28;45110;-61
2022/04/15 07:55:54;;;;;;;2.78;1.58;;;21.00;47.70;;;;;;4976470;28;45401;-61
2022/04/15 07:58:19;;;;;;;3.67;1.63;;;21.00;47.70;;;;;;4948576;28;45955;-63
2022/04/15 08:00:45;;;;;;;3.50;2.33;;;21.00;47.70;;;;;;4963660;28;45715;-61
2022/04/15 08:03:11;;;;;;;3.33;1.85;;;21.00;47.70;;;;;;4953107;28;45362;-61
2022/04/15 08:05:37;;;;;;;2.45;1.35;;;21.00;47.70;;;;;;4970036;28;45412;-61
2022/04/15 08:08:03;;;;;;;6.22;1.75;;;21.00;47.60;;;;;;4933103;28;45993;-61
2022/04/15 08:10:29;;;;;;;4.22;1.70;;;21.10;47.60;;;;;;4969835;28;45442;-62
2022/04/15 08:12:54;;;;;;;1.85;1.65;;;21.00;47.50;;;;;;4970185;28;45316;-61
2022/04/15 08:15:20;;;;;;;3.97;1.70;;;21.10;47.50;;;;;;4965497;28;45254;-58
2022/04/15 08:17:46;;;;;;;3.63;1.70;;;21.10;47.60;;;;;;4970214;28;45203;-61
2022/04/15 08:20:12;;;;;;;5.63;2.05;;;21.10;47.50;;;;;;4969194;28;45446;-62
2022/04/15 08:22:37;;;;;;;2.13;1.60;;;21.10;47.50;;;;;;4973621;28;45228;-63
2022/04/15 08:25:04;;;;;;;2.75;1.48;;;21.10;47.50;;;;;;4949176;28;45079;-63
2022/04/15 08:27:29;;;;;;;1.85;1.20;;;21.10;47.50;;;;;;4967718;28;45911;-58
2022/04/15 08:29:55;;;;;;;3.30;1.30;;;21.20;47.50;;;;;;4964358;28;45517;-61
2022/04/15 08:32:21;;;;;;;2.25;1.67;;;21.10;47.40;;;;;;4955450;28;45337;-60
2022/04/15 08:34:46;;;;;;;3.03;1.70;;;21.20;47.50;;;;;;4966516;28;44702;-60
2022/04/15 08:37:13;;;;;;;2.08;1.50;;;21.10;47.40;;;;;;4966093;28;45929;-62
2022/04/15 08:39:39;;;;;;;2.13;1.45;;;21.10;47.40;;;;;;4966582;28;45331;-58
2022/04/15 08:42:07;;;;;;;4.45;1.63;;;21.20;47.50;;;;;;4968734;28;46344;-62
2022/04/15 08:44:33;;;;;;;1.52;1.42;;;21.20;47.40;;;;;;4971228;28;45579;-61
2022/04/15 08:46:58;;;;;;;3.88;1.60;;;21.20;47.40;;;;;;4973995;28;45250;-63
2022/04/15 08:49:24;;;;;;;1.30;1.20;;;21.20;47.40;;;;;;4960175;23;45643;-61
2022/04/15 08:51:53;;;;;;;2.10;1.63;;;21.20;47.30;;;;;;4923686;28;45736;-64
2022/04/15 08:54:18;;;;;;;3.70;1.50;;;21.20;47.30;;;;;;4930569;28;45472;-58
2022/04/15 08:56:44;;;;;;;2.65;1.88;;;21.30;47.30;;;;;;4934886;28;47275;-61
2022/04/15 08:59:10;;;;;;;2.45;1.38;;;21.30;47.30;;;;;;4934708;28;45510;-61
2022/04/15 09:01:35;;;;;;;2.83;1.27;;;21.30;47.30;;;;;;4937407;28;45229;-56
2022/04/15 09:04:02;;;;;;;1.75;1.50;;;21.30;47.30;;;;;;4918690;28;45086;-61
2022/04/15 09:06:28;;;;;;;3.60;1.50;;;21.40;47.30;;;;;;4936758;28;45923;-58
2022/04/15 09:09:02;;;;;;;4.88;1.50;;;21.40;47.20;;;;;;4938050;28;45425;-63
2022/04/15 09:11:35;;;;;;;2.47;1.42;;;21.40;47.20;;;;;;4936635;28;45311;-61
2022/04/15 09:14:03;;;;;;;2.10;1.50;;;21.40;47.20;;;;;;4937266;28;45255;-62
2022/04/15 09:16:30;;;;;;;1.70;1.60;;;21.40;47.20;;;;;;4937143;28;45968;-60
2022/04/15 09:18:56;;;;;;;1.55;1.20;;;21.40;47.20;;;;;;4938238;28;45656;-61
2022/04/15 09:21:24;;;;;;;4.60;1.50;;;21.40;47.20;;;;;;4900736;28;45415;-59
2022/04/15 09:23:54;;;;;;;1.60;1.50;;;21.40;47.10;;;;;;4947472;28;45066;-58
2022/04/15 09:26:23;;;;;;;2.15;1.50;;;21.50;47.10;;;;;;4939244;28;45568;-61
2022/04/15 09:28:49;;;;;;;1.60;1.48;;;21.50;47.10;;;;;;4938808;28;45288;-64
2022/04/15 09:31:16;;;;;;;1.40;1.30;;;21.50;47.00;;;;;;4935081;28;44988;-64
2022/04/15 09:34:00;;;;;;;2.22;1.42;;;21.50;47.00;;;;;;4919153;28;45251;-61
2022/04/15 09:36:56;;;;;;;3.00;1.58;;;21.50;47.00;;;;;;4927902;28;46896;-57
2022/04/15 09:39:22;;;;;;;4.63;1.70;;;21.50;47.50;;;;;;4927222;28;45216;-61
2022/04/15 09:41:52;;;;;;;1.67;1.55;;;21.50;47.00;;;;;;4930140;28;45408;-59
2022/04/15 09:44:17;;;;;;;1.42;1.30;;;21.60;47.10;;;;;;4937448;28;45295;-62
2022/04/15 09:46:44;;;;;;;1.67;1.40;;;21.60;47.00;;;;;;4923093;28;46019;-61
2022/04/15 09:49:10;;;;;;;1.58;1.40;;;21.60;47.00;;;;;;4935730;28;45339;-60
2022/04/15 09:51:46;;;;;;;1.50;1.40;;;21.60;47.00;;;;;;4928337;28;45181;-61
2022/04/15 09:54:32;;;;;;;3.08;1.48;;;21.60;47.00;;;;;;4934452;28;44760;-61
2022/04/15 09:56:58;;;;;;;1.80;1.50;;;21.60;47.00;;;;;;4922292;28;46348;-61
2022/04/15 09:59:26;;;;;;;1.40;1.13;;;21.60;47.00;;;;;;4919767;28;45211;-59
2022/04/15 10:01:55;;;;;;;1.80;1.30;;;21.60;47.00;;;;;;4932351;28;45568;-59
2022/04/15 10:04:23;;;;;;;1.65;1.50;;;21.60;47.00;;;;;;4931920;28;45475;-60
2022/04/15 10:06:48;;;;;;;1.80;1.48;;;21.60;47.60;;;;;;4938886;28;46027;-61
2022/04/15 10:09:14;;;;;;;1.48;1.35;;;21.60;47.00;;;;;;4936001;28;45235;-62
2022/04/15 10:11:44;;;;;;;2.08;1.65;;;21.60;47.00;;;;;;4936626;28;45369;-58
2022/04/15 10:14:11;;;;;;;2.20;1.80;;;21.70;47.10;;;;;;4911151;28;44988;-60
2022/04/15 10:16:40;;;;;;;1.85;1.60;;;21.60;47.10;;;;;;4933095;28;45074;-60
2022/04/15 10:19:06;;;;;;;2.88;1.45;;;21.60;47.20;;;;;;4930008;28;45220;-57
2022/04/15 10:21:38;;;;;;;1.70;1.60;;;21.60;47.20;;;;;;4932680;28;45492;-61
2022/04/15 10:24:04;;;;;;;2.20;1.30;;;21.60;47.20;;;;;;4926109;28;45532;-60
2022/04/15 10:26:34;;;;;;;1.40;1.30;;;21.60;47.30;;;;;;4937979;28;47076;-60
2022/04/15 10:29:03;;;;;;;2.28;1.55;;;21.60;47.30;;;;;;4917440;28;45638;-59
2022/04/15 10:31:36;;;;;;;2.22;1.45;;;21.60;47.30;;;;;;4928922;28;45745;-61
2022/04/15 10:34:29;;;;;;;3.45;1.00;;;21.60;47.30;;;;;;4936337;28;45319;-61
2022/04/15 10:36:55;;;;;;;3.35;1.55;;;21.60;47.30;;;;;;4934739;28;46040;-61
2022/04/15 10:39:22;;;;;;;2.20;1.48;;;21.60;47.30;;;;;;4930876;28;45598;-57
2022/04/15 10:41:53;;;;;;;1.55;1.33;;;21.60;47.20;;;;;;4929669;28;45209;-60
2022/04/15 10:44:36;;;;;;;1.67;1.27;;;21.60;47.20;;;;;;4929490;28;45393;-60
2022/04/15 10:47:14;;;;;;;1.50;1.33;;;21.70;47.20;;;;;;4928960;28;46233;-61
2022/04/15 10:49:53;;;;;;;1.40;1.30;;;21.70;47.20;;;;;;4923863;28;45300;-60
2022/04/15 10:52:21;;;;;;;1.40;1.27;;;21.70;47.20;;;;;;4920637;28;44771;-61
2022/04/15 10:54:49;;;;;;;2.90;1.13;;;21.70;47.20;;;;;;4930626;28;45691;-61
2022/04/15 10:57:17;;;;;;;2.15;1.30;;;21.70;47.20;;;;;;4929805;28;45894;-60
2022/04/15 11:02:59;;;;;;;4.60;1.67;;;21.70;47.20;;;;;;4918493;28;44988;-59
2022/04/15 11:05:43;;;;;;;1.23;1.13;;;21.70;47.20;;;;;;4899461;28;44672;-60
2022/04/15 11:08:12;;;;;;;1.98;1.63;;;21.70;47.10;;;;;;4932271;28;45370;-61
2022/04/15 11:10:48;;;;;;;1.45;1.17;;;21.70;47.10;;;;;;4930163;28;45217;-60
2022/04/15 11:13:39;;;;;;;1.50;1.20;;;21.70;47.20;;;;;;4928736;28;45775;-61
2022/04/15 11:16:13;;;;;;;1.43;1.00;;;21.70;47.10;;;;;;4932914;28;44895;-65
2022/04/15 11:19:01;;;;;;;1.40;1.30;;;21.70;47.20;;;;;;4932503;28;46000;-59
2022/04/15 11:21:36;;;;;;;2.88;1.42;;;21.70;47.10;;;;;;4928151;28;45142;-62
2022/04/15 11:24:05;;;;;;;1.38;1.27;;;21.70;47.10;;;;;;4931115;28;45551;-61
2022/04/15 11:26:31;;;;;;;1.45;1.20;;;21.70;47.20;;;;;;4932097;28;44845;-64
2022/04/15 11:28:58;;;;;;;1.48;1.10;;;21.70;47.10;;;;;;4932407;28;46099;-61
2022/04/15 11:31:33;;;;;;;1.30;1.15;;;21.70;47.10;;;;;;4931937;28;45228;-61
2022/04/15 11:34:15;;;;;;;1.15;1.05;;;21.80;47.10;;;;;;4932345;28;44933;-64
2022/04/15 11:36:42;;;;;;;3.25;1.55;;;21.80;47.20;;;;;;4935600;28;45184;-62
2022/04/15 11:39:09;;;;;;;1.35;1.25;;;21.80;47.10;;;;;;4938759;28;45180;-62
2022/04/15 11:41:35;;;;;;;1.33;1.23;;;21.80;47.20;;;;;;4923970;28;45423;-61
2022/04/15 11:44:02;;;;;;;2.20;1.27;;;21.70;47.70;;;;;;4914364;28;45124;-61
2022/04/15 11:46:41;;;;;;;1.98;1.33;;;21.80;47.20;;;;;;4936681;28;45440;-62
2022/04/15 11:49:24;;;;;;;1.30;1.20;;;21.80;47.20;;;;;;4930388;28;46027;-60
2022/04/15 11:51:56;;;;;;;2.63;1.10;;;21.80;47.30;;;;;;4938389;28;45446;-57
2022/04/15 11:54:22;;;;;;;1.20;1.10;;;21.80;47.30;;;;;;4935650;28;44824;-61
2022/04/15 11:56:53;;;;;;;1.77;1.20;;;21.80;47.30;;;;;;4901628;28;44846;-62
2022/04/15 11:59:18;;;;;;;1.42;1.33;;;21.80;47.30;;;;;;4915434;28;46397;-60
2022/04/15 12:01:44;;;;;;;1.77;1.30;;;21.80;47.30;;;;;;4914692;28;45245;-61
2022/04/15 12:04:10;;;;;;;1.65;1.30;;;21.80;47.30;;;;;;4924652;28;46146;-60
2022/04/15 12:06:41;;;;;;;2.50;1.10;;;21.80;47.30;;;;;;4929428;28;45673;-61
2022/04/15 12:09:13;;;;;;;1.30;1.13;;;21.80;47.30;;;;;;4924095;28;46099;-64
2022/04/15 12:11:39;;;;;;;0.95;0.95;;;21.80;47.30;;;;;;4937342;28;45467;-62
2022/04/15 12:14:06;;;;;;;2.03;1.10;;;21.80;47.40;;;;;;4938599;28;45306;-61
2022/04/15 12:16:33;;;;;;;1.60;1.17;;;21.80;47.40;;;;;;4941762;28;45610;-60
2022/04/15 12:18:59;;;;;;;1.38;1.27;;;21.80;47.30;;;;;;4936928;28;45944;-59
2022/04/15 12:21:25;;;;;;;1.90;1.20;;;21.80;47.30;;;;;;4933005;28;45203;-61
2022/04/15 12:24:10;;;;;;;2.97;1.13;;;21.80;47.30;;;;;;4942116;28;45284;-62
2022/04/15 12:26:46;;;;;;;1.50;1.40;;;21.80;47.30;;;;;;4940658;28;46262;-62
2022/04/15 12:32:15;;;;;;;1.30;1.20;;;21.80;47.30;;;;;;4937715;28;45562;-61
2022/04/15 12:34:42;;;;;;;1.20;1.10;;;21.90;47.40;;;;;;4941046;28;45235;-61
2022/04/15 12:37:27;;;;;;;1.17;1.08;;;21.80;47.40;;;;;;4923240;28;45380;-62
2022/04/15 12:39:53;;;;;;;1.10;1.00;;;21.80;47.30;;;;;;4929264;28;46006;-60
2022/04/15 12:42:32;;;;;;;1.10;1.00;;;21.80;47.30;;;;;;4938489;28;45248;-63
2022/04/15 12:44:58;;;;;;;1.33;1.15;;;21.90;47.40;;;;;;4938889;28;45630;-62
2022/04/15 12:47:25;;;;;;;1.20;1.10;;;21.90;47.40;;;;;;4936554;28;45465;-61
2022/04/15 12:49:51;;;;;;;1.70;1.20;;;21.90;47.40;;;;;;4934205;28;45998;-62
2022/04/15 12:52:17;;;;;;;1.98;1.23;;;21.90;47.40;;;;;;4940245;28;45174;-61
2022/04/15 12:55:12;;;;;;;1.33;1.17;;;21.90;47.40;;;;;;4932888;28;45228;-58
2022/04/15 12:57:40;;;;;;;1.23;1.10;;;21.90;47.50;;;;;;4933018;28;45421;-62
2022/04/15 13:00:06;;;;;;;1.10;1.00;;;21.90;47.40;;;;;;4934130;28;46080;-62
2022/04/15 13:02:32;;;;;;;1.30;1.20;;;21.90;47.40;;;;;;4932638;28;45280;-62
2022/04/15 13:04:58;;;;;;;1.10;1.00;;;21.90;47.40;;;;;;4940616;28;45544;-61
2022/04/15 13:07:24;;;;;;;1.38;0.98;;;21.90;47.30;;;;;;4935930;28;44669;-58
2022/04/15 13:09:50;;;;;;;1.40;1.13;;;21.90;47.30;;;;;;4919291;28;46130;-63
2022/04/15 13:12:19;;;;;;;1.10;1.00;;;21.90;47.30;;;;;;4934298;28;45320;-62
2022/04/15 13:14:45;;;;;;;1.48;1.10;;;22.00;47.30;;;;;;4937908;28;45241;-63
2022/04/15 13:17:11;;;;;;;1.35;1.02;;;21.90;47.30;;;;;;4932866;28;44758;-61
2022/04/15 13:19:36;;;;;;;1.00;1.00;;;21.90;47.30;;;;;;4943300;28;46761;-61
2022/04/15 13:22:03;;;;;;;1.20;1.10;;;21.90;47.30;;;;;;4945605;28;45204;-62
2022/04/15 13:24:29;;;;;;;1.02;0.93;;;22.00;47.30;;;;;;4943919;28;46589;-63
2022/04/15 13:26:54;;;;;;;1.13;1.00;;;22.00;47.30;;;;;;4945949;28;45273;-61
2022/04/15 13:29:20;;;;;;;1.92;1.02;;;22.00;47.40;;;;;;4940060;28;46227;-62
2022/04/15 13:31:46;;;;;;;1.70;1.25;;;22.00;47.30;;;;;;4924794;28;45416;-60
2022/04/15 13:34:11;;;;;;;1.30;1.10;;;22.00;47.30;;;;;;4937657;28;46373;-63
2022/04/15 13:36:37;;;;;;;1.23;1.10;;;22.00;47.30;;;;;;4944825;28;45070;-61
2022/04/15 13:39:03;;;;;;;1.40;1.00;;;22.00;47.40;;;;;;4928472;28;45013;-62
2022/04/15 13:41:29;;;;;;;0.85;0.85;;;22.00;47.40;;;;;;4934244;28;45646;-60
2022/04/15 13:43:54;;;;;;;2.25;1.15;;;22.00;47.40;;;;;;4939572;28;45172;-60
2022/04/15 13:46:20;;;;;;;1.42;0.90;;;22.00;47.40;;;;;;4932242;28;45807;-60
2022/04/15 13:48:46;;;;;;;1.25;0.88;;;22.00;47.40;;;;;;4933874;28;45295;-61
2022/04/15 13:51:11;;;;;;;1.45;1.00;;;22.00;47.40;;;;;;4941202;28;45468;-60
2022/04/15 13:56:41;;;;;;;0.88;0.77;;;22.00;47.40;;;;;;4938153;28;45181;-62
2022/04/15 13:59:08;;;;;;;0.80;0.80;;;22.00;47.40;;;;;;4935276;28;46310;-60
2022/04/15 14:01:35;;;;;;;1.52;1.05;;;22.00;47.50;;;;;;4934041;28;44956;-61
2022/04/15 14:04:02;;;;;;;1.00;0.90;;;22.10;47.50;;;;;;4934263;28;46366;-63
2022/04/15 14:06:27;;;;;;;1.25;1.00;;;22.10;47.50;;;;;;4934689;28;45421;-61
2022/04/15 14:08:53;;;;;;;1.20;1.10;;;22.00;47.50;;;;;;4940066;28;45804;-62
2022/04/15 14:11:20;;;;;;;1.42;1.20;;;22.10;47.50;;;;;;4929965;28;45164;-58
2022/04/15 14:13:46;;;;;;;0.80;0.80;;;22.00;47.40;;;;;;4931266;28;45204;-62
2022/04/15 14:16:12;;;;;;;1.15;1.05;;;22.10;47.50;;;;;;4927989;28;45407;-58
2022/04/15 14:18:38;;;;;;;0.90;0.80;;;22.10;47.50;;;;;;4930125;28;45299;-61
2022/04/15 14:21:04;;;;;;;1.20;1.10;;;22.10;47.50;;;;;;4936286;28;45204;-58
2022/04/15 14:23:30;;;;;;;1.13;0.98;;;22.10;47.50;;;;;;4937063;28;45198;-61
2022/04/15 14:25:55;;;;;;;0.93;0.85;;;22.10;47.60;;;;;;4936990;28;45525;-61
2022/04/15 14:28:21;;;;;;;1.38;1.10;;;22.10;47.60;;;;;;4934767;28;45950;-61
2022/04/15 14:30:46;;;;;;;1.42;0.90;;;22.10;47.50;;;;;;4939557;28;44765;-60
2022/04/15 14:33:12;;;;;;;0.90;0.80;;;22.10;47.60;;;;;;4935140;28;45613;-59
2022/04/15 14:35:41;;;;;;;0.80;0.80;;;22.10;47.60;;;;;;4934126;28;45692;-61
2022/04/15 14:38:07;;;;;;;2.10;1.02;;;22.10;47.60;;;;;;4934639;28;45170;-61
2022/04/15 14:40:33;;;;;;;1.20;1.00;;;22.10;47.20;;;;;;4939517;28;45515;-62
2022/04/15 14:42:59;;;;;;;2.05;1.00;;;22.10;46.40;;;;;;4939316;28;45306;-60
2022/04/15 14:45:26;;;;;;;3.60;0.90;;;22.10;45.30;;;;;;4934577;28;45186;-56
2022/04/15 14:47:51;;;;;;;1.50;0.90;;;22.10;44.50;;;;;;4933711;28;46140;-56
2022/04/15 14:50:18;;;;;;;4.57;1.50;;;22.30;44.00;;;;;;4932077;28;45358;-55
2022/04/15 14:52:44;;;;;;;5.18;1.70;;;22.30;43.50;;;;;;4933149;28;45202;-57
2022/04/15 14:55:10;;;;;;;2.30;1.40;;;22.30;43.00;;;;;;4937144;28;45499;-55
2022/04/15 14:57:36;;;;;;;2.00;1.20;;;22.30;42.20;;;;;;4935839;28;46222;-55
2022/04/15 15:00:05;;;;;;;3.90;1.20;;;22.30;42.40;;;;;;4935699;28;45161;-57
2022/04/15 15:02:31;;;;;;;3.72;1.10;;;22.30;41.90;;;;;;4936086;28;45322;-58
2022/04/15 15:04:57;;;;;;;1.52;1.23;;;22.30;42.00;;;;;;4924065;28;45975;-56
2022/04/15 15:07:23;;;;;;;1.88;1.00;;;22.30;41.30;;;;;;4917585;28;46258;-56
2022/04/15 15:09:48;;;;;;;1.38;0.95;;;22.30;41.10;;;;;;4934001;28;44703;-55
2022/04/15 15:12:14;;;;;;;0.93;0.70;;;22.20;40.70;;;;;;4932411;28;45510;-57
2022/04/15 15:14:40;;;;;;;8.70;1.00;;;22.10;40.80;;;;;;4937486;28;45169;-58
2022/04/15 15:17:06;;;;;;;0.80;0.75;;;22.10;40.80;;;;;;4937527;28;46074;-57
2022/04/15 15:19:31;;;;;;;1.35;0.70;;;22.20;40.60;;;;;;4931833;28;44834;-56
2022/04/15 15:21:57;;;;;;;1.75;1.00;;;22.20;40.40;;;;;;4931186;28;45259;-58
2022/04/15 15:29:51;;;;;;;2.42;0.95;;;22.10;40.10;;;;;;4925175;28;45145;-57
2022/04/15 15:32:18;;;;;;;3.20;0.90;;;22.10;39.90;;;;;;4926714;28;45545;-57
2022/04/15 15:34:44;;;;;;;1.63;0.90;;;22.10;39.80;;;;;;4920872;28;45141;-59
2022/04/15 15:37:10;;;;;;;0.90;0.68;;;22.10;39.80;;;;;;4889740;28;45338;-56
2022/04/15 15:39:37;;;;;;;2.80;1.30;;;22.10;39.70;;;;;;4921372;28;46165;-56
2022/04/15 15:42:03;;;;;;;1.33;0.98;;;22.10;39.50;;;;;;4912440;28;45732;-58
2022/04/15 15:44:30;;;;;;;1.15;0.80;;;22.10;39.30;;;;;;4937797;28;44981;-56
2022/04/15 15:46:55;;;;;;;3.60;0.90;;;22.00;39.30;;;;;;4940602;28;46903;-55
2022/04/15 15:49:21;;;;;;;1.20;0.80;;;21.90;39.70;;;;;;4918922;28;45300;-57
2022/04/15 15:51:46;;;;;;;1.85;0.70;;;21.80;39.80;;;;;;4929919;28;45201;-55
2022/04/15 15:54:12;;;;;;;1.08;0.70;;;21.80;40.10;;;;;;4934362;28;45515;-58
2022/04/15 15:56:38;;;;;;;4.45;0.82;;;21.80;40.00;;;;;;4915623;28;45666;-59
2022/04/15 15:59:05;;;;;;;2.22;0.77;;;21.80;40.00;;;;;;4937682;28;45097;-56
2022/04/15 16:01:30;;;;;;;1.42;0.82;;;21.70;40.10;;;;;;4931948;28;44777;-57
2022/04/15 16:03:56;;;;;;;1.33;1.00;;;21.70;40.40;;;;;;4933712;28;46614;-57
2022/04/15 16:06:23;;;;;;;4.05;0.90;;;21.60;40.30;;;;;;4901610;28;46191;-57